Time;durP1;ratioP1;P1;durP2;ratioP2;P2;SDS_P1;SDS_P2;PMS_P1;PMS_P2;Temp;Humidity;BMP_temperature;BMP_pressure;BME280_temperature;BME280_humidity;BME280_pressure;Samples;Min_cycle;Max_cycle;Signal;HPM_P1;HPM_P2
2023/09/28 00:00:35;;;;;;;4.50;3.40;;;12.30;33.00;;;;;;5052276;28;20798;-70
2023/09/28 00:02:43;;;;;;;5.50;3.37;;;12.30;33.80;;;;;;5053600;28;20483;-70
2023/09/28 00:05:10;;;;;;;5.93;3.90;;;12.30;33.80;;;;;;5052454;28;20463;-70
2023/09/28 00:07:36;;;;;;;6.33;3.70;;;12.20;33.60;;;;;;5053537;28;20781;-69
2023/09/28 00:10:03;;;;;;;8.13;4.40;;;12.30;33.90;;;;;;5052358;28;20463;-70
2023/09/28 00:12:29;;;;;;;5.27;3.70;;;12.20;34.30;;;;;;5052342;28;20249;-70
2023/09/28 00:14:54;;;;;;;5.33;3.63;;;12.20;34.30;;;;;;5052362;28;20499;-70
2023/09/28 00:17:20;;;;;;;7.50;4.67;;;12.10;35.00;;;;;;5052865;28;20574;-69
2023/09/28 00:19:46;;;;;;;5.00;4.10;;;12.10;35.00;;;;;;5053437;28;20194;-70
2023/09/28 00:22:11;;;;;;;5.27;4.10;;;12.20;34.50;;;;;;5052939;28;20262;-70
2023/09/28 00:24:37;;;;;;;7.53;4.53;;;12.20;33.60;;;;;;5034130;28;20203;-70
2023/09/28 00:27:02;;;;;;;5.77;4.20;;;12.20;34.00;;;;;;5054545;28;20175;-70
2023/09/28 00:29:28;;;;;;;6.50;4.87;;;12.10;32.80;;;;;;5053409;28;20200;-71
2023/09/28 00:31:54;;;;;;;7.40;4.97;;;12.10;32.80;;;;;;5052705;28;20241;-70
2023/09/28 00:34:19;;;;;;;8.43;3.87;;;12.10;34.40;;;;;;5052224;28;20735;-70
2023/09/28 00:36:45;;;;;;;5.47;4.20;;;12.00;33.80;;;;;;5052549;28;20446;-70
2023/09/28 00:39:11;;;;;;;6.37;4.80;;;12.00;33.90;;;;;;5034393;28;20194;-70
2023/09/28 00:41:37;;;;;;;5.67;4.50;;;12.00;33.20;;;;;;5052034;28;20646;-70
2023/09/28 00:44:04;;;;;;;5.83;4.50;;;12.00;33.50;;;;;;5053975;28;20407;-70
2023/09/28 00:46:34;;;;;;;4.03;3.40;;;12.00;33.70;;;;;;5057947;28;20532;-70
2023/09/28 00:49:05;;;;;;;6.10;3.70;;;11.90;32.70;;;;;;5056444;28;20519;-71
2023/09/28 00:51:33;;;;;;;4.73;4.07;;;11.90;32.60;;;;;;5057185;28;20412;-70
2023/09/28 00:54:05;;;;;;;4.07;3.47;;;11.90;32.60;;;;;;5038839;28;20449;-70
2023/09/28 00:56:32;;;;;;;4.80;4.10;;;12.00;31.00;;;;;;5058434;28;20405;-70
2023/09/28 00:58:59;;;;;;;5.43;3.50;;;12.00;31.50;;;;;;5056667;28;20429;-70
2023/09/28 01:01:29;;;;;;;5.70;4.43;;;12.00;30.30;;;;;;5058294;28;20904;-70
2023/09/28 01:03:56;;;;;;;5.40;4.13;;;11.90;31.70;;;;;;5058624;28;20423;-70
2023/09/28 01:06:24;;;;;;;4.40;3.17;;;11.90;31.10;;;;;;5056516;28;20510;-70
2023/09/28 01:08:50;;;;;;;4.97;3.90;;;11.90;31.20;;;;;;5055673;28;20446;-70
2023/09/28 01:11:17;;;;;;;5.10;4.47;;;11.90;30.40;;;;;;5037548;28;20853;-70
2023/09/28 01:13:43;;;;;;;8.27;4.60;;;11.90;29.70;;;;;;5038522;28;20611;-70
2023/09/28 01:16:10;;;;;;;5.00;4.13;;;11.90;30.20;;;;;;5038205;28;20433;-69
2023/09/28 01:18:36;;;;;;;4.60;3.30;;;11.90;28.80;;;;;;5038206;28;20951;-70
2023/09/28 01:21:02;;;;;;;5.33;3.47;;;11.90;29.10;;;;;;5037855;28;20187;-70
2023/09/28 01:23:28;;;;;;;5.93;3.30;;;11.90;28.00;;;;;;5037630;28;20421;-70
2023/09/28 01:25:54;;;;;;;4.63;3.40;;;11.90;28.00;;;;;;5055604;28;20454;-69
2023/09/28 01:28:21;;;;;;;4.90;3.73;;;11.90;28.00;;;;;;5055253;28;20198;-69
2023/09/28 01:30:47;;;;;;;5.73;4.03;;;11.90;28.00;;;;;;5055552;28;20166;-69
2023/09/28 01:33:13;;;;;;;5.40;3.90;;;11.90;28.00;;;;;;5055545;28;20405;-70
2023/09/28 01:35:38;;;;;;;5.10;3.73;;;11.90;28.00;;;;;;5055853;28;20786;-69
2023/09/28 01:38:19;;;;;;;4.97;3.33;;;11.80;28.00;;;;;;5056020;28;20672;-69
2023/09/28 01:40:47;;;;;;;7.37;3.73;;;11.80;28.00;;;;;;5056908;28;20177;-70
2023/09/28 01:43:13;;;;;;;8.07;5.47;;;11.80;28.70;;;;;;5058446;28;20424;-70
2023/09/28 01:45:39;;;;;;;7.50;4.33;;;11.80;28.40;;;;;;5056568;28;20817;-70
2023/09/28 01:48:06;;;;;;;5.13;3.83;;;11.80;28.00;;;;;;5055964;28;20646;-69
2023/09/28 01:50:32;;;;;;;4.23;3.00;;;11.90;26.90;;;;;;5055243;28;20425;-68
2023/09/28 01:52:58;;;;;;;4.70;3.20;;;11.90;25.10;;;;;;5055490;28;20421;-69
2023/09/28 01:55:24;;;;;;;4.43;2.87;;;12.00;21.30;;;;;;5055204;28;20413;-69
2023/09/28 01:57:49;;;;;;;4.80;3.47;;;12.00;20.30;;;;;;5055492;28;20637;-69
2023/09/28 02:00:20;;;;;;;4.97;2.73;;;12.10;19.80;;;;;;5055163;28;20171;-69
2023/09/28 02:02:46;;;;;;;5.10;3.20;;;12.10;19.80;;;;;;5037379;28;20417;-69
2023/09/28 02:05:20;;;;;;;4.77;3.20;;;12.20;17.50;;;;;;5037247;28;20967;-69
2023/09/28 02:07:46;;;;;;;6.83;3.83;;;12.20;17.50;;;;;;5055426;28;20410;-70
2023/09/28 02:10:12;;;;;;;4.00;3.20;;;12.30;16.00;;;;;;5093223;22;20887;-72
2023/09/28 02:12:43;;;;;;;5.80;3.47;;;12.30;15.60;;;;;;5078252;28;20166;-72
2023/09/28 02:15:10;;;;;;;5.83;3.93;;;12.30;15.60;;;;;;5074474;28;20412;-72
2023/09/28 02:17:38;;;;;;;6.53;4.23;;;12.30;17.20;;;;;;5073543;28;20507;-72
2023/09/28 02:20:26;;;;;;;7.10;3.60;;;12.20;17.60;;;;;;5078152;28;20472;-72
2023/09/28 02:22:54;;;;;;;4.27;2.20;;;12.20;18.00;;;;;;5077155;28;20456;-72
2023/09/28 02:25:22;;;;;;;6.10;3.30;;;12.20;17.90;;;;;;5076256;28;20533;-72
2023/09/28 02:27:49;;;;;;;5.43;3.70;;;12.20;16.40;;;;;;5075987;28;20415;-70
2023/09/28 02:30:19;;;;;;;6.90;3.07;;;12.20;17.00;;;;;;5073829;28;20492;-71
2023/09/28 02:32:46;;;;;;;6.40;2.83;;;12.20;16.00;;;;;;5075864;28;20452;-72
2023/09/28 02:35:16;;;;;;;4.90;3.23;;;12.20;14.70;;;;;;5075178;28;20508;-72
2023/09/28 02:37:44;;;;;;;4.70;2.73;;;12.30;13.60;;;;;;5073970;28;21178;-72
2023/09/28 02:40:12;;;;;;;5.20;3.23;;;12.30;12.60;;;;;;5077269;28;20448;-71
2023/09/28 02:42:37;;;;;;;7.13;3.40;;;12.40;12.70;;;;;;5074657;28;20427;-72
2023/09/28 02:45:11;;;;;;;5.33;2.20;;;12.30;12.30;;;;;;5073353;28;20460;-72
2023/09/28 02:47:47;;;;;;;5.10;3.57;;;12.40;11.40;;;;;;5073415;28;20179;-71
2023/09/28 02:50:13;;;;;;;5.80;3.53;;;12.40;11.30;;;;;;5075286;28;20422;-71
2023/09/28 02:52:41;;;;;;;4.23;2.83;;;12.40;11.40;;;;;;5073911;28;20434;-72
2023/09/28 02:55:08;;;;;;;6.23;3.67;;;12.50;11.10;;;;;;5075288;28;20496;-72
2023/09/28 02:57:34;;;;;;;4.70;3.10;;;12.50;11.40;;;;;;5074922;28;20416;-71
2023/09/28 03:00:01;;;;;;;4.90;3.30;;;12.50;11.40;;;;;;5074548;28;20440;-72
2023/09/28 03:02:26;;;;;;;4.23;2.53;;;12.50;11.40;;;;;;5073848;28;20416;-72
2023/09/28 03:04:52;;;;;;;5.07;3.30;;;12.40;12.10;;;;;;5074648;28;20467;-72
2023/09/28 03:07:18;;;;;;;6.50;3.63;;;12.40;12.80;;;;;;5071023;28;20429;-72
2023/09/28 03:09:43;;;;;;;6.70;3.33;;;12.40;12.50;;;;;;5072993;28;20209;-72
2023/09/28 03:12:09;;;;;;;5.10;3.17;;;12.50;11.40;;;;;;5075495;28;20187;-72
2023/09/28 03:14:34;;;;;;;4.83;2.77;;;12.60;11.50;;;;;;5072381;28;20181;-72
2023/09/28 03:17:00;;;;;;;5.33;2.57;;;12.60;12.00;;;;;;5074303;28;20201;-72
2023/09/28 03:19:25;;;;;;;5.93;3.30;;;12.50;11.70;;;;;;5073696;28;20189;-72
2023/09/28 03:21:52;;;;;;;5.63;3.20;;;12.50;12.80;;;;;;5071832;28;20268;-71
2023/09/28 03:24:18;;;;;;;4.53;3.30;;;12.60;12.90;;;;;;5072282;28;20178;-71
2023/09/28 03:26:43;;;;;;;4.90;3.60;;;12.60;13.50;;;;;;5073562;28;20468;-71
2023/09/28 03:29:09;;;;;;;6.03;4.10;;;12.50;13.60;;;;;;5074245;28;20190;-70
2023/09/28 03:31:34;;;;;;;5.47;3.33;;;12.50;14.60;;;;;;5074888;28;20174;-72
2023/09/28 03:34:00;;;;;;;6.60;4.67;;;12.50;15.70;;;;;;5072808;28;20184;-72
2023/09/28 03:36:30;;;;;;;4.77;4.30;;;12.60;15.40;;;;;;5073873;28;20241;-71
2023/09/28 03:38:56;;;;;;;6.57;4.37;;;12.60;16.00;;;;;;5074544;28;20202;-71
2023/09/28 03:41:21;;;;;;;7.10;3.77;;;12.60;17.40;;;;;;5074398;28;20423;-70
2023/09/28 03:43:48;;;;;;;5.77;3.33;;;12.50;17.50;;;;;;5073332;28;20833;-72
2023/09/28 03:46:18;;;;;;;4.30;3.17;;;12.50;16.20;;;;;;5073751;28;20301;-72
2023/09/28 03:48:45;;;;;;;4.80;3.30;;;12.50;15.30;;;;;;5074561;28;20522;-72
2023/09/28 03:51:11;;;;;;;6.23;2.97;;;12.40;14.60;;;;;;5074340;28;20415;-72
2023/09/28 03:53:40;;;;;;;5.67;3.60;;;12.40;15.10;;;;;;5073201;28;20833;-72
2023/09/28 03:56:06;;;;;;;6.33;3.43;;;12.30;15.60;;;;;;5072924;28;20424;-72
2023/09/28 03:58:32;;;;;;;6.80;3.23;;;12.30;15.60;;;;;;5074074;28;20436;-72
2023/09/28 04:00:58;;;;;;;3.77;2.77;;;12.20;16.70;;;;;;5073300;28;20262;-72
2023/09/28 04:03:24;;;;;;;3.70;2.43;;;12.30;15.60;;;;;;5073848;28;20432;-70
2023/09/28 04:05:50;;;;;;;3.40;2.50;;;12.30;15.50;;;;;;5073016;28;20222;-71
2023/09/28 04:08:15;;;;;;;4.40;3.47;;;12.30;15.40;;;;;;5072484;28;20416;-72
2023/09/28 04:10:41;;;;;;;6.80;4.13;;;12.30;15.70;;;;;;5072930;28;20419;-72
2023/09/28 04:13:07;;;;;;;5.20;3.00;;;12.30;15.60;;;;;;5073340;28;20583;-72
2023/09/28 04:15:33;;;;;;;4.00;2.63;;;12.30;15.40;;;;;;5073040;28;20413;-72
2023/09/28 04:17:59;;;;;;;4.73;2.77;;;12.30;15.60;;;;;;5071409;28;20416;-71
2023/09/28 04:20:25;;;;;;;9.50;3.73;;;12.40;15.80;;;;;;5073106;28;20205;-72
2023/09/28 04:22:50;;;;;;;5.90;3.80;;;12.40;14.20;;;;;;5071697;28;20881;-72
2023/09/28 04:25:18;;;;;;;4.80;3.23;;;12.50;14.00;;;;;;5071018;28;20207;-71
2023/09/28 04:27:44;;;;;;;4.03;3.27;;;12.50;12.70;;;;;;5071895;28;20416;-72
2023/09/28 04:30:10;;;;;;;4.10;3.30;;;12.60;11.60;;;;;;5073792;28;20519;-72
2023/09/28 04:32:36;;;;;;;6.87;4.77;;;12.50;12.70;;;;;;5070954;28;20417;-72
2023/09/28 04:35:06;;;;;;;5.67;4.00;;;12.50;13.40;;;;;;5072363;28;20415;-72
2023/09/28 04:37:32;;;;;;;6.73;4.10;;;12.60;13.70;;;;;;5071489;28;20188;-72
2023/09/28 04:39:57;;;;;;;6.53;4.80;;;12.50;14.00;;;;;;5070809;28;20467;-72
2023/09/28 04:42:23;;;;;;;5.40;4.30;;;12.60;14.10;;;;;;5073756;28;20427;-71
2023/09/28 04:44:49;;;;;;;6.23;3.93;;;12.60;13.60;;;;;;5070667;28;20211;-69
2023/09/28 04:47:15;;;;;;;8.43;5.33;;;12.60;13.60;;;;;;5071984;28;20197;-69
2023/09/28 04:49:41;;;;;;;5.83;3.90;;;12.60;12.90;;;;;;5073419;28;20465;-71
2023/09/28 04:52:07;;;;;;;9.40;4.37;;;12.60;13.60;;;;;;5073835;28;20416;-69
2023/09/28 04:54:33;;;;;;;6.13;4.33;;;12.60;13.50;;;;;;5072930;28;20176;-71
2023/09/28 04:56:59;;;;;;;5.00;3.90;;;12.60;13.40;;;;;;5073049;28;20766;-70
2023/09/28 04:59:24;;;;;;;4.17;3.27;;;12.60;13.30;;;;;;5072831;28;20194;-71
2023/09/28 05:01:50;;;;;;;5.33;3.50;;;12.50;13.50;;;;;;5072154;28;20189;-71
2023/09/28 05:04:16;;;;;;;4.30;3.10;;;12.50;13.00;;;;;;5071948;28;20244;-71
2023/09/28 05:06:42;;;;;;;7.50;3.70;;;12.50;13.30;;;;;;5072900;28;20681;-71
2023/09/28 05:09:08;;;;;;;4.90;4.30;;;12.50;12.80;;;;;;5073203;28;20457;-71
2023/09/28 05:11:34;;;;;;;4.70;3.13;;;12.50;13.60;;;;;;5071578;28;20432;-71
2023/09/28 05:14:00;;;;;;;5.90;3.40;;;12.50;13.40;;;;;;5072483;28;20409;-71
2023/09/28 05:16:26;;;;;;;4.97;4.00;;;12.40;13.80;;;;;;5072599;28;20429;-71
2023/09/28 05:18:51;;;;;;;5.50;3.77;;;12.50;13.10;;;;;;5071709;28;20277;-70
2023/09/28 05:21:17;;;;;;;4.90;2.90;;;12.50;13.20;;;;;;5073745;28;20183;-71
2023/09/28 05:23:43;;;;;;;6.27;3.83;;;12.50;14.10;;;;;;5070223;28;20214;-71
2023/09/28 05:26:08;;;;;;;6.07;3.50;;;12.50;14.10;;;;;;5071134;28;20463;-71
2023/09/28 05:28:34;;;;;;;12.00;3.83;;;12.50;14.40;;;;;;5073050;28;20559;-71
2023/09/28 05:30:59;;;;;;;10.07;4.00;;;12.50;13.60;;;;;;5076160;28;20188;-71
2023/09/28 05:33:25;;;;;;;12.83;7.70;;;12.40;14.30;;;;;;5074839;28;20806;-71
2023/09/28 05:35:50;;;;;;;10.03;5.67;;;12.60;13.40;;;;;;5075615;28;20668;-71
2023/09/28 05:38:16;;;;;;;4.97;3.70;;;12.60;13.20;;;;;;5076788;28;20563;-71
2023/09/28 05:40:41;;;;;;;5.33;3.90;;;12.70;12.60;;;;;;5074088;28;20658;-71
2023/09/28 05:43:07;;;;;;;6.70;3.83;;;12.80;12.50;;;;;;5074878;28;20718;-71
2023/09/28 05:45:32;;;;;;;6.70;3.20;;;12.90;10.90;;;;;;5074298;28;20227;-71
2023/09/28 05:47:58;;;;;;;6.07;3.93;;;12.90;10.80;;;;;;5076194;28;20200;-70
2023/09/28 05:50:24;;;;;;;8.07;4.90;;;13.00;9.90;;;;;;5073860;28;20193;-71
2023/09/28 05:52:52;;;;;;;7.03;5.70;;;13.10;9.80;;;;;;5075555;28;20174;-71
2023/09/28 05:55:19;;;;;;;6.63;3.90;;;13.20;10.10;;;;;;5075888;28;20184;-71
2023/09/28 05:57:45;;;;;;;6.50;4.57;;;13.20;10.30;;;;;;5075256;28;20429;-71
2023/09/28 06:00:11;;;;;;;7.93;4.97;;;13.20;10.10;;;;;;5074113;28;20426;-70
2023/09/28 06:02:37;;;;;;;6.90;4.73;;;13.30;10.10;;;;;;5074340;28;20407;-71
2023/09/28 06:05:03;;;;;;;7.40;4.37;;;13.30;9.80;;;;;;5074063;28;20831;-71
2023/09/28 06:07:28;;;;;;;5.13;3.60;;;13.40;9.50;;;;;;5077588;28;20844;-70
2023/09/28 06:09:54;;;;;;;4.30;3.90;;;13.50;9.00;;;;;;5073322;28;20596;-70
2023/09/28 06:12:19;;;;;;;9.50;4.50;;;13.50;8.60;;;;;;5076104;28;20643;-71
2023/09/28 06:14:45;;;;;;;6.97;5.30;;;13.50;8.70;;;;;;5074265;28;20670;-70
2023/09/28 06:17:10;;;;;;;6.00;4.60;;;13.60;7.70;;;;;;5074628;28;20167;-71
2023/09/28 06:19:37;;;;;;;5.37;3.80;;;13.70;7.80;;;;;;5075090;28;20218;-70
2023/09/28 06:22:05;;;;;;;5.80;4.07;;;13.70;7.80;;;;;;5073876;28;20266;-70
2023/09/28 06:24:31;;;;;;;9.73;3.90;;;13.80;7.90;;;;;;5075184;28;20418;-70
2023/09/28 06:26:56;;;;;;;7.13;4.93;;;13.80;7.20;;;;;;5074371;28;20484;-71
2023/09/28 06:29:22;;;;;;;5.70;3.70;;;13.80;6.50;;;;;;5075949;28;20505;-71
2023/09/28 06:31:47;;;;;;;9.83;3.93;;;13.90;6.70;;;;;;5072406;28;20170;-71
2023/09/28 06:34:13;;;;;;;6.07;3.60;;;14.00;5.30;;;;;;5078905;28;20178;-71
2023/09/28 06:36:38;;;;;;;7.57;4.20;;;14.10;4.60;;;;;;5073932;28;20184;-70
2023/09/28 06:39:04;;;;;;;5.27;3.77;;;14.20;3.00;;;;;;5073795;28;20246;-71
2023/09/28 06:41:30;;;;;;;4.60;3.30;;;14.40;3.40;;;;;;5073845;28;20208;-71
2023/09/28 06:43:56;;;;;;;10.33;4.00;;;14.50;1.70;;;;;;5074383;28;20755;-71
2023/09/28 06:46:22;;;;;;;5.50;3.43;;;14.70;1.00;;;;;;5073752;28;20202;-71
2023/09/28 06:48:49;;;;;;;4.80;3.03;;;14.90;1.00;;;;;;5075201;28;20190;-75
2023/09/28 06:51:15;;;;;;;4.63;3.17;;;15.10;1.00;;;;;;5074018;28;20408;-71
2023/09/28 06:53:41;;;;;;;7.33;3.33;;;15.30;1.00;;;;;;5074905;28;20750;-70
2023/09/28 06:56:07;;;;;;;8.57;3.90;;;15.50;1.00;;;;;;5073632;28;20419;-71
2023/09/28 06:58:32;;;;;;;7.60;3.40;;;15.80;1.00;;;;;;5071678;28;20233;-72
2023/09/28 07:00:58;;;;;;;5.63;3.27;;;16.10;1.00;;;;;;5074625;28;20189;-71
2023/09/28 07:03:24;;;;;;;6.20;3.63;;;16.50;1.00;;;;;;5071859;28;20178;-72
2023/09/28 07:05:49;;;;;;;5.93;3.97;;;16.80;1.00;;;;;;5071562;28;20255;-71
2023/09/28 07:08:15;;;;;;;7.47;4.10;;;17.20;1.00;;;;;;5073979;28;20542;-71
2023/09/28 07:10:41;;;;;;;8.63;3.77;;;17.60;1.00;;;;;;5074466;28;20178;-71
2023/09/28 07:13:08;;;;;;;7.30;4.37;;;17.90;1.00;;;;;;5074291;28;20308;-72
2023/09/28 07:15:38;;;;;;;5.50;3.70;;;18.30;1.00;;;;;;5075502;28;20416;-72
2023/09/28 07:18:04;;;;;;;9.57;4.20;;;18.60;1.00;;;;;;5076025;28;20194;-70
2023/09/28 07:20:30;;;;;;;6.10;3.70;;;18.90;1.00;;;;;;5075633;28;20440;-71
2023/09/28 07:22:56;;;;;;;5.83;4.87;;;19.30;1.00;;;;;;5071573;28;20246;-71
2023/09/28 07:25:22;;;;;;;5.50;3.93;;;19.60;1.00;;;;;;5073103;28;20897;-71
2023/09/28 07:27:52;;;;;;;9.67;4.40;;;19.80;1.00;;;;;;5073757;28;20423;-71
2023/09/28 07:30:19;;;;;;;4.87;3.90;;;20.10;1.00;;;;;;5073575;28;20939;-71
2023/09/28 07:32:46;;;;;;;6.57;4.13;;;20.50;1.00;;;;;;5072560;28;20412;-72
2023/09/28 07:35:12;;;;;;;6.23;4.53;;;20.70;1.00;;;;;;5072716;28;20421;-71
2023/09/28 07:37:39;;;;;;;5.90;4.07;;;20.80;1.00;;;;;;5072475;28;20950;-71
2023/09/28 07:40:06;;;;;;;7.80;5.10;;;20.80;1.00;;;;;;5071805;28;20439;-71
2023/09/28 07:42:32;;;;;;;4.80;4.07;;;21.00;1.00;;;;;;5072438;28;20419;-71
2023/09/28 07:44:57;;;;;;;6.13;4.07;;;21.10;1.00;;;;;;5072073;28;20520;-72
2023/09/28 07:47:23;;;;;;;5.67;4.20;;;21.70;1.00;;;;;;5072441;28;20186;-72
2023/09/28 07:49:49;;;;;;;4.20;3.53;;;22.00;1.00;;;;;;5072021;28;20196;-72
2023/09/28 07:52:15;;;;;;;7.30;5.87;;;22.20;1.00;;;;;;5075356;28;20215;-72
2023/09/28 07:54:40;;;;;;;7.50;4.70;;;22.10;1.00;;;;;;5071030;28;20200;-71
2023/09/28 07:57:09;;;;;;;5.80;5.10;;;21.70;1.00;;;;;;5072004;28;20413;-70
2023/09/28 07:59:35;;;;;;;6.27;5.17;;;21.40;1.00;;;;;;5071811;28;20226;-71
2023/09/28 08:02:01;;;;;;;8.27;4.80;;;21.50;1.00;;;;;;5076354;28;20422;-71
2023/09/28 08:04:27;;;;;;;4.43;3.70;;;21.40;1.00;;;;;;5070408;28;20416;-71
2023/09/28 08:06:54;;;;;;;6.47;4.37;;;21.20;1.00;;;;;;5072205;28;20593;-71
2023/09/28 08:09:20;;;;;;;4.93;4.00;;;20.90;1.00;;;;;;5088026;22;20503;-68
2023/09/28 08:11:48;;;;;;;10.13;4.73;;;21.00;1.00;;;;;;5053194;28;20492;-69
2023/09/28 08:14:15;;;;;;;7.57;5.00;;;21.10;1.00;;;;;;5051749;28;20173;-68
2023/09/28 08:16:42;;;;;;;13.23;6.90;;;20.70;1.00;;;;;;5051934;28;20808;-68
2023/09/28 08:19:08;;;;;;;5.20;4.70;;;20.50;1.00;;;;;;5051778;28;20427;-68
2023/09/28 08:21:37;;;;;;;7.50;5.13;;;20.40;1.00;;;;;;5052362;28;20497;-68
2023/09/28 08:24:03;;;;;;;4.93;4.43;;;20.00;1.00;;;;;;5053874;28;20459;-68
2023/09/28 08:26:30;;;;;;;10.17;5.97;;;19.70;1.00;;;;;;5051615;28;20539;-68
2023/09/28 08:28:57;;;;;;;6.53;4.20;;;19.60;1.00;;;;;;5051600;28;20508;-68
2023/09/28 08:31:23;;;;;;;6.10;4.60;;;19.50;1.00;;;;;;5052423;28;20411;-68
2023/09/28 08:33:49;;;;;;;8.37;4.23;;;19.50;1.00;;;;;;5052028;28;20409;-68
2023/09/28 08:36:15;;;;;;;4.73;3.47;;;19.30;1.00;;;;;;5051528;28;20196;-69
2023/09/28 08:38:40;;;;;;;9.90;4.87;;;19.30;1.00;;;;;;5051478;28;20205;-68
2023/09/28 08:41:09;;;;;;;10.53;4.67;;;19.30;1.00;;;;;;5054066;28;20421;-68
2023/09/28 08:43:43;;;;;;;6.27;4.50;;;19.20;1.00;;;;;;5051239;28;20185;-68
2023/09/28 08:46:12;;;;;;;7.70;5.27;;;19.30;1.00;;;;;;5051311;28;20449;-68
2023/09/28 08:48:44;;;;;;;5.87;4.20;;;19.40;1.00;;;;;;5051323;28;20908;-68
2023/09/28 08:51:11;;;;;;;5.40;4.23;;;19.40;1.00;;;;;;5051313;28;20397;-68
2023/09/28 08:53:38;;;;;;;6.53;4.17;;;19.50;1.00;;;;;;5053118;28;20401;-68
2023/09/28 08:56:04;;;;;;;6.20;4.40;;;19.60;1.00;;;;;;5052941;28;20448;-68
2023/09/28 08:58:34;;;;;;;4.80;3.33;;;19.70;1.00;;;;;;5051422;28;20813;-68
2023/09/28 09:01:01;;;;;;;7.73;3.70;;;19.80;1.00;;;;;;5051050;28;20437;-68
2023/09/28 09:03:27;;;;;;;4.93;4.00;;;20.00;1.00;;;;;;5052275;28;20421;-68
2023/09/28 09:05:55;;;;;;;6.63;4.53;;;20.10;1.00;;;;;;5054862;28;20457;-68
2023/09/28 09:08:22;;;;;;;10.83;4.73;;;20.30;1.00;;;;;;5055739;28;20969;-68
2023/09/28 09:10:51;;;;;;;9.33;3.70;;;20.40;1.00;;;;;;5055895;28;20939;-68
2023/09/28 09:13:20;;;;;;;7.13;4.00;;;20.60;1.00;;;;;;5055585;28;20416;-68
2023/09/28 09:15:46;;;;;;;6.20;3.90;;;20.80;1.00;;;;;;5057458;28;20428;-68
2023/09/28 09:18:24;;;;;;;5.33;3.67;;;21.10;1.00;;;;;;5055455;28;20416;-68
2023/09/28 09:20:50;;;;;;;4.40;3.50;;;21.30;1.00;;;;;;5054766;28;20817;-68
2023/09/28 09:23:17;;;;;;;4.20;3.37;;;21.50;1.00;;;;;;5054873;28;20428;-68
2023/09/28 09:25:43;;;;;;;5.20;4.13;;;21.80;1.00;;;;;;5055559;28;20467;-68
2023/09/28 09:28:10;;;;;;;4.53;3.60;;;21.90;1.00;;;;;;5054893;28;20508;-69
2023/09/28 09:30:35;;;;;;;5.73;4.10;;;22.20;1.00;;;;;;5055916;28;20456;-69
2023/09/28 09:33:01;;;;;;;4.40;4.00;;;22.40;1.00;;;;;;5055210;28;20901;-68
2023/09/28 09:35:30;;;;;;;4.77;4.00;;;22.50;1.00;;;;;;5054430;28;20572;-69
2023/09/28 09:37:56;;;;;;;4.90;4.00;;;22.70;1.00;;;;;;5054687;28;20210;-68
2023/09/28 09:40:21;;;;;;;4.43;3.87;;;22.90;1.00;;;;;;5054341;28;20508;-68
2023/09/28 09:42:47;;;;;;;4.30;3.63;;;23.10;1.00;;;;;;5054444;28;20186;-68
2023/09/28 09:45:12;;;;;;;4.43;3.77;;;23.20;1.00;;;;;;5056140;28;20580;-68
2023/09/28 09:47:49;;;;;;;4.57;4.17;;;23.40;1.00;;;;;;5056018;28;20175;-68
2023/09/28 09:50:16;;;;;;;6.93;4.00;;;23.50;1.00;;;;;;5055932;28;20193;-68
2023/09/28 09:52:46;;;;;;;4.47;4.07;;;23.70;1.00;;;;;;5054465;28;20839;-68
2023/09/28 09:55:12;;;;;;;3.40;3.10;;;23.80;1.00;;;;;;5054061;28;20828;-68
2023/09/28 09:57:38;;;;;;;20.60;5.07;;;23.90;1.00;;;;;;5055355;28;20424;-69
2023/09/28 10:00:07;;;;;;;4.53;4.13;;;24.00;1.00;;;;;;5055695;28;20261;-68
2023/09/28 10:02:41;;;;;;;4.53;4.13;;;24.00;1.00;;;;;;5056356;28;20443;-68
2023/09/28 10:05:09;;;;;;;4.23;3.80;;;24.10;1.00;;;;;;5053908;28;20459;-68
2023/09/28 10:07:37;;;;;;;4.97;4.47;;;24.20;1.00;;;;;;5054904;28;20931;-69
2023/09/28 10:10:05;;;;;;;6.73;4.77;;;24.30;1.00;;;;;;5055060;28;20865;-68
2023/09/28 10:12:30;;;;;;;5.60;3.70;;;24.40;1.00;;;;;;5053977;28;20848;-68
2023/09/28 10:15:00;;;;;;;5.00;4.60;;;24.50;1.00;;;;;;5053534;28;20425;-68
2023/09/28 10:17:28;;;;;;;4.40;3.87;;;24.60;1.00;;;;;;5055326;28;20220;-67
2023/09/28 10:19:58;;;;;;;9.33;5.13;;;24.70;1.00;;;;;;5054532;28;20437;-67
2023/09/28 10:22:24;;;;;;;4.97;4.47;;;24.90;1.00;;;;;;5053685;28;20413;-66
2023/09/28 10:24:50;;;;;;;4.27;3.80;;;24.90;1.00;;;;;;5053393;28;20893;-67
2023/09/28 10:27:17;;;;;;;5.20;4.67;;;25.00;1.00;;;;;;5055316;28;20660;-67
2023/09/28 10:29:43;;;;;;;4.70;4.30;;;25.10;1.00;;;;;;5053734;28;20198;-66
2023/09/28 10:32:29;;;;;;;4.03;3.70;;;25.20;1.00;;;;;;5053518;28;20918;-67
2023/09/28 10:35:20;;;;;;;5.63;3.73;;;25.30;1.00;;;;;;5053470;28;20182;-66
2023/09/28 10:38:21;;;;;;;5.60;4.77;;;25.40;1.00;;;;;;5054936;28;20497;-67
2023/09/28 10:41:10;;;;;;;5.07;4.37;;;25.50;1.00;;;;;;4992078;28;20867;-66
2023/09/28 10:43:45;;;;;;;5.10;4.40;;;25.70;1.00;;;;;;5040411;28;20425;-67
2023/09/28 10:46:12;;;;;;;5.07;4.43;;;25.80;1.00;;;;;;5053229;28;20497;-67
2023/09/28 10:48:42;;;;;;;12.33;6.27;;;25.90;1.00;;;;;;5053569;28;20440;-67
2023/09/28 10:51:18;;;;;;;5.10;4.70;;;26.10;1.00;;;;;;5055118;28;20515;-68
2023/09/28 10:53:45;;;;;;;4.83;4.33;;;26.10;1.00;;;;;;5053061;28;20770;-67
2023/09/28 10:56:11;;;;;;;4.33;3.97;;;26.30;1.00;;;;;;5053755;28;20417;-67
2023/09/28 10:58:37;;;;;;;4.33;3.93;;;26.50;1.00;;;;;;5055359;28;20562;-67
2023/09/28 11:01:07;;;;;;;5.37;4.47;;;26.50;1.00;;;;;;5053052;28;20421;-67
2023/09/28 11:03:33;;;;;;;5.57;4.20;;;26.60;1.00;;;;;;5053335;28;20443;-67
2023/09/28 11:06:09;;;;;;;4.80;4.40;;;26.70;1.00;;;;;;5054098;28;20456;-67
2023/09/28 11:08:36;;;;;;;3.93;3.50;;;26.80;1.00;;;;;;5052814;28;20440;-68
2023/09/28 11:11:03;;;;;;;4.40;4.10;;;26.70;1.00;;;;;;5053087;28;20408;-68
2023/09/28 11:13:29;;;;;;;4.73;4.03;;;26.80;1.00;;;;;;5054040;28;20405;-67
2023/09/28 11:15:55;;;;;;;5.10;4.70;;;26.90;1.00;;;;;;5053654;28;20851;-68
2023/09/28 11:18:23;;;;;;;4.00;3.60;;;27.10;1.00;;;;;;5052823;28;20493;-68
2023/09/28 11:20:48;;;;;;;4.07;3.77;;;27.30;1.00;;;;;;5052690;28;20437;-68
2023/09/28 11:23:14;;;;;;;4.27;3.87;;;27.50;1.00;;;;;;5054276;28;20409;-68
2023/09/28 11:25:41;;;;;;;3.57;3.30;;;27.40;1.00;;;;;;5052517;28;20673;-68
2023/09/28 11:28:07;;;;;;;4.40;4.00;;;27.50;1.00;;;;;;5052098;28;20701;-68
2023/09/28 11:30:33;;;;;;;5.47;4.67;;;27.40;1.00;;;;;;5053442;28;20433;-68
2023/09/28 11:33:02;;;;;;;4.10;3.70;;;27.70;1.00;;;;;;5053414;28;20536;-68
2023/09/28 11:35:40;;;;;;;3.63;3.33;;;27.60;1.00;;;;;;5052927;28;20175;-68
2023/09/28 11:38:10;;;;;;;3.80;3.50;;;27.90;1.00;;;;;;5053438;28;20463;-68
2023/09/28 11:40:37;;;;;;;4.77;4.37;;;28.20;1.00;;;;;;5052397;28;20433;-68
2023/09/28 11:43:04;;;;;;;4.27;3.87;;;28.30;1.00;;;;;;5052153;28;20413;-68
2023/09/28 11:45:33;;;;;;;3.60;3.30;;;28.20;1.00;;;;;;5051978;28;20492;-68
2023/09/28 11:48:04;;;;;;;3.63;3.33;;;28.20;1.00;;;;;;5052374;28;20417;-68
2023/09/28 11:50:30;;;;;;;3.47;3.17;;;28.40;1.00;;;;;;5052361;28;20441;-68
2023/09/28 11:52:56;;;;;;;4.43;4.00;;;28.50;1.00;;;;;;5052075;28;20797;-68
2023/09/28 11:55:22;;;;;;;4.07;3.77;;;28.40;1.00;;;;;;5052062;28;20417;-68
2023/09/28 11:57:48;;;;;;;5.67;4.07;;;28.60;1.00;;;;;;5052433;28;20645;-68
2023/09/28 12:00:21;;;;;;;3.63;3.33;;;28.70;1.00;;;;;;5052242;28;20190;-68
2023/09/28 12:02:48;;;;;;;3.63;3.33;;;28.60;1.00;;;;;;5052171;28;20432;-68
2023/09/28 12:05:14;;;;;;;3.70;3.40;;;28.60;1.00;;;;;;5051836;28;20452;-68
2023/09/28 12:07:43;;;;;;;6.90;3.60;;;28.50;1.00;;;;;;5052229;28;20447;-68
2023/09/28 12:10:14;;;;;;;4.07;3.57;;;28.70;1.00;;;;;;5052109;28;20453;-68
2023/09/28 12:12:39;;;;;;;4.07;3.77;;;28.60;1.00;;;;;;5052215;28;20417;-68
2023/09/28 12:15:10;;;;;;;4.87;4.47;;;28.50;1.00;;;;;;5051833;28;20500;-68
2023/09/28 12:17:39;;;;;;;4.73;4.10;;;28.70;1.00;;;;;;5052151;28;20444;-68
2023/09/28 12:20:06;;;;;;;3.70;3.40;;;28.80;1.00;;;;;;5051689;28;20527;-68
2023/09/28 12:22:33;;;;;;;3.93;3.63;;;28.80;1.00;;;;;;5051956;28;20830;-68
2023/09/28 12:24:59;;;;;;;3.50;3.30;;;28.90;1.00;;;;;;5051529;28;20488;-68
2023/09/28 12:27:24;;;;;;;3.50;3.30;;;29.00;1.00;;;;;;5052130;28;20512;-68
2023/09/28 12:29:50;;;;;;;4.40;4.10;;;29.00;1.00;;;;;;5052052;28;20202;-69
2023/09/28 12:32:16;;;;;;;5.93;3.93;;;29.00;1.00;;;;;;5051613;28;20217;-69
2023/09/28 12:34:41;;;;;;;3.60;3.40;;;29.10;1.00;;;;;;5052051;28;20265;-68
2023/09/28 12:37:07;;;;;;;6.23;3.60;;;29.20;1.00;;;;;;5051768;28;20179;-68
2023/09/28 12:39:33;;;;;;;4.00;3.70;;;29.20;1.00;;;;;;5053336;28;20190;-68
2023/09/28 12:41:59;;;;;;;17.90;8.00;;;29.30;1.00;;;;;;5056140;28;20214;-69
2023/09/28 12:44:25;;;;;;;4.17;3.87;;;29.40;1.00;;;;;;5055709;28;20462;-68
2023/09/28 12:46:52;;;;;;;3.77;3.50;;;29.30;1.00;;;;;;5056249;28;20213;-68
2023/09/28 12:49:18;;;;;;;4.17;3.80;;;29.30;1.00;;;;;;5055773;28;20456;-68
2023/09/28 12:51:46;;;;;;;3.30;3.10;;;29.30;1.00;;;;;;5055781;28;20456;-68